Time;durP1;ratioP1;P1;durP2;ratioP2;P2;SDS_P1;SDS_P2;PMS_P1;PMS_P2;Temp;Humidity;BMP_temperature;BMP_pressure;BME280_temperature;BME280_humidity;BME280_pressure;Samples;Min_cycle;Max_cycle;Signal;HPM_P1;HPM_P2
2022/04/27 00:02:07;;;;;;;7.57;7.30;;;;;;;7.70;86.25;101634.09;5114515;28;20215;-68
2022/04/27 00:04:34;;;;;;;7.33;7.03;;;;;;;7.68;86.01;101644.56;5116205;28;20216;-68
2022/04/27 00:07:04;;;;;;;7.43;7.10;;;;;;;7.66;86.21;101641.13;5115026;28;20220;-68
2022/04/27 00:09:31;;;;;;;8.07;7.70;;;;;;;7.64;86.29;101642.91;5114810;28;20220;-68
2022/04/27 00:12:00;;;;;;;8.43;8.13;;;;;;;7.65;86.17;101643.75;5116022;28;20594;-68
2022/04/27 00:14:31;;;;;;;9.07;8.37;;;;;;;7.52;86.35;101645.66;5115986;28;20599;-68
2022/04/27 00:16:58;;;;;;;7.80;7.50;;;;;;;7.45;86.67;101644.88;5115804;28;20622;-68
2022/04/27 00:19:26;;;;;;;8.40;8.00;;;;;;;7.44;87.10;101643.16;5114095;28;20188;-68
2022/04/27 00:21:52;;;;;;;8.53;8.27;;;;;;;7.37;88.01;101641.53;5115710;28;20228;-68
2022/04/27 00:24:18;;;;;;;8.17;7.73;;;;;;;7.31;88.36;101641.59;5114828;28;20217;-67
2022/04/27 00:26:45;;;;;;;7.90;7.50;;;;;;;7.30;88.61;101645.09;5110881;28;20702;-68
2022/04/27 00:29:11;;;;;;;7.93;7.63;;;;;;;7.27;89.00;101647.72;5096631;28;20224;-67
2022/04/27 00:31:38;;;;;;;8.07;7.83;;;;;;;7.21;89.05;101642.59;5096526;28;20226;-68
2022/04/27 00:34:04;;;;;;;9.27;8.50;;;;;;;7.20;89.28;101645.22;5097039;28;20189;-68
2022/04/27 00:36:31;;;;;;;7.60;7.40;;;;;;;7.19;89.44;101639.16;5115438;28;20325;-68
2022/04/27 00:38:58;;;;;;;8.27;7.80;;;;;;;7.17;89.76;101640.91;5095631;28;20197;-68
2022/04/27 00:41:25;;;;;;;8.33;7.83;;;;;;;7.17;89.55;101641.78;5115161;28;20213;-68
2022/04/27 00:43:51;;;;;;;9.63;8.70;;;;;;;7.21;89.45;101641.72;5115398;28;20643;-68
2022/04/27 00:46:18;;;;;;;9.83;9.03;;;;;;;7.18;89.55;101637.44;5096750;28;20200;-68
2022/04/27 00:48:44;;;;;;;8.30;7.67;;;;;;;7.22;89.71;101641.72;5113422;28;20197;-68
2022/04/27 00:51:16;;;;;;;8.33;8.03;;;;;;;7.18;90.16;101632.22;5096167;28;20201;-68
2022/04/27 00:53:43;;;;;;;8.93;8.03;;;;;;;7.18;90.44;101629.63;5096667;28;20185;-68
2022/04/27 00:56:12;;;;;;;8.93;8.30;;;;;;;7.17;90.33;101631.34;5096546;28;20202;-68
2022/04/27 00:58:43;;;;;;;9.33;8.47;;;;;;;7.15;89.96;101630.53;5113919;28;20182;-68
2022/04/27 01:01:18;;;;;;;8.63;8.23;;;;;;;7.17;90.07;101633.09;5115112;28;20615;-68
2022/04/27 01:03:45;;;;;;;7.97;7.67;;;;;;;7.14;90.00;101635.72;5115009;28;20681;-68
2022/04/27 01:06:11;;;;;;;8.07;7.63;;;;;;;7.11;89.76;101641.00;5115131;28;20643;-68
2022/04/27 01:08:38;;;;;;;8.20;7.80;;;;;;;7.09;89.73;101640.16;5094943;28;20209;-68
2022/04/27 01:11:06;;;;;;;7.60;7.40;;;;;;;7.09;89.58;101648.81;5096957;28;20595;-68
2022/04/27 01:13:38;;;;;;;8.57;8.17;;;;;;;7.09;89.54;101643.63;5096874;28;20200;-68
2022/04/27 01:16:05;;;;;;;7.87;7.27;;;;;;;7.05;89.60;101641.91;5095878;28;20193;-68
2022/04/27 01:18:33;;;;;;;8.17;7.73;;;;;;;7.06;89.51;101647.97;5095373;28;20595;-68
2022/04/27 01:21:00;;;;;;;7.67;7.33;;;;;;;7.03;89.42;101653.25;5113798;28;20246;-68
2022/04/27 01:23:27;;;;;;;8.20;7.63;;;;;;;7.03;89.36;101659.31;5096474;28;20286;-68
2022/04/27 01:25:55;;;;;;;7.53;7.23;;;;;;;7.03;89.38;101661.06;5096163;28;20193;-68
2022/04/27 01:28:24;;;;;;;8.13;7.57;;;;;;;7.02;89.50;101662.78;5094550;28;20205;-68
2022/04/27 01:30:57;;;;;;;7.83;7.53;;;;;;;7.00;89.65;101663.66;5111236;28;20204;-68
2022/04/27 01:33:24;;;;;;;8.00;7.60;;;;;;;7.02;89.45;101667.16;5095984;28;20201;-68
2022/04/27 01:35:51;;;;;;;7.67;7.37;;;;;;;6.99;89.56;101661.94;5113491;28;20273;-67
2022/04/27 01:38:18;;;;;;;7.03;6.87;;;;;;;6.97;89.82;101674.13;5094986;28;20616;-67
2022/04/27 01:40:46;;;;;;;8.13;7.83;;;;;;;6.90;90.33;101663.78;5114136;28;20578;-67
2022/04/27 01:43:16;;;;;;;7.47;7.10;;;;;;;6.88;90.63;101664.69;5095883;28;20224;-67
2022/04/27 01:45:43;;;;;;;7.63;7.53;;;;;;;6.86;90.54;101672.53;5114599;28;20623;-67
2022/04/27 01:48:13;;;;;;;8.47;7.90;;;;;;;6.83;90.55;101676.88;5112846;28;20618;-68
2022/04/27 01:50:39;;;;;;;7.97;7.77;;;;;;;6.77;90.38;101677.81;5095785;28;20727;-67
2022/04/27 01:55:51;;;;;;;8.27;7.67;;;;;;;6.75;90.39;101689.13;5114159;28;20672;-67
2022/04/27 01:58:19;;;;;;;8.10;7.57;;;;;;;6.76;90.12;101681.28;5080593;28;20205;-68
2022/04/27 02:00:48;;;;;;;7.10;6.90;;;;;;;6.77;90.13;101689.94;5095951;28;20281;-67
2022/04/27 02:03:15;;;;;;;8.17;7.97;;;;;;;6.73;90.15;101686.53;5095647;28;20197;-67
2022/04/27 02:05:42;;;;;;;7.40;7.10;;;;;;;6.71;90.33;101687.41;5112988;28;20245;-68
2022/04/27 02:08:09;;;;;;;8.10;7.83;;;;;;;6.70;90.34;101690.91;5094488;28;20215;-68
2022/04/27 02:10:35;;;;;;;10.00;8.00;;;;;;;6.67;90.44;101699.59;5095337;28;20562;-68
2022/04/27 02:13:03;;;;;;;7.70;7.33;;;;;;;6.65;90.43;101698.75;5095443;28;20193;-68
2022/04/27 02:15:30;;;;;;;8.57;8.27;;;;;;;6.66;90.49;101700.47;5095441;28;20189;-68
2022/04/27 02:18:14;;;;;;;9.13;8.23;;;;;;;6.64;90.32;101699.63;5094589;28;20682;-68
2022/04/27 02:20:40;;;;;;;7.80;7.60;;;;;;;6.61;90.54;101697.06;5093420;28;20193;-68
2022/04/27 02:23:07;;;;;;;8.57;8.03;;;;;;;6.63;90.35;101696.16;5095409;28;20724;-67
2022/04/27 02:25:33;;;;;;;8.03;7.73;;;;;;;6.54;90.71;101700.59;5095415;28;20189;-67
2022/04/27 02:28:00;;;;;;;8.63;7.77;;;;;;;6.52;90.75;101710.16;5094771;28;20224;-68
2022/04/27 02:30:26;;;;;;;9.13;8.47;;;;;;;6.47;90.77;101707.56;5093706;28;20753;-68
2022/04/27 02:32:53;;;;;;;7.07;6.93;;;;;;;6.48;90.87;101711.03;5113517;28;20235;-67
2022/04/27 02:35:21;;;;;;;8.80;8.13;;;;;;;6.43;90.86;101710.19;5095280;28;20200;-67
2022/04/27 02:37:47;;;;;;;8.77;8.43;;;;;;;6.40;91.23;101718.06;5095000;28;20702;-67
2022/04/27 02:40:14;;;;;;;8.17;7.87;;;;;;;6.39;91.15;101713.72;5093996;28;20217;-68
2022/04/27 02:42:41;;;;;;;10.17;9.20;;;;;;;6.37;91.27;101720.69;5095469;28;20216;-68
2022/04/27 02:45:09;;;;;;;9.27;8.30;;;;;;;6.28;91.73;101721.59;5095110;28;20198;-68
2022/04/27 02:47:36;;;;;;;8.17;7.87;;;;;;;6.27;91.88;101725.94;5096490;28;20738;-67
2022/04/27 02:53:06;;;;;;;9.33;8.63;;;;;;;6.22;92.58;101727.72;5098996;28;20228;-67
2022/04/27 02:55:34;;;;;;;8.87;8.37;;;;;;;6.22;92.73;101732.06;5098745;28;20539;-68
2022/04/27 02:58:01;;;;;;;8.00;7.77;;;;;;;6.22;92.94;101729.47;5098872;28;20674;-68
2022/04/27 03:00:30;;;;;;;11.33;9.27;;;;;;;6.18;92.91;101727.75;5097673;28;20246;-68
2022/04/27 03:03:00;;;;;;;8.90;8.37;;;;;;;6.10;93.30;101735.59;5099193;28;20185;-68
2022/04/27 03:05:26;;;;;;;8.07;7.67;;;;;;;6.09;93.70;101728.69;5099411;28;20189;-67
2022/04/27 03:07:53;;;;;;;8.27;7.87;;;;;;;6.08;93.81;101732.16;5116911;28;20208;-67
2022/04/27 03:10:22;;;;;;;8.07;7.77;;;;;;;6.06;93.70;101736.47;5097220;28;20211;-68
2022/04/27 03:12:49;;;;;;;8.73;8.13;;;;;;;6.04;93.89;101740.84;5081837;28;20200;-68
2022/04/27 03:15:15;;;;;;;8.37;7.97;;;;;;;5.99;94.09;101742.59;5098660;28;20185;-68
2022/04/27 03:17:41;;;;;;;10.10;9.30;;;;;;;5.93;94.61;101748.72;5098619;28;20213;-68
2022/04/27 03:20:09;;;;;;;8.80;8.40;;;;;;;5.93;94.88;101738.31;5096749;28;20675;-68
2022/04/27 03:22:35;;;;;;;9.40;9.00;;;;;;;5.93;95.25;101740.03;5099067;28;20196;-68
2022/04/27 03:25:03;;;;;;;9.70;9.20;;;;;;;5.94;95.50;101736.56;5116799;28;20678;-68
2022/04/27 03:27:29;;;;;;;9.47;9.00;;;;;;;5.86;95.78;101746.09;5098246;28;20220;-68
2022/04/27 03:29:56;;;;;;;10.57;9.57;;;;;;;5.83;96.00;101736.59;5114095;28;20193;-68
2022/04/27 03:32:22;;;;;;;9.33;8.80;;;;;;;5.76;95.95;101733.16;5098301;28;20241;-68
2022/04/27 03:35:01;;;;;;;9.30;8.70;;;;;;;5.71;96.05;101737.50;5083561;28;20216;-68
2022/04/27 03:37:30;;;;;;;10.43;9.50;;;;;;;5.70;96.32;101740.97;5098372;28;20582;-67
2022/04/27 03:39:56;;;;;;;14.30;9.00;;;;;;;5.68;96.49;101737.53;5115608;28;20624;-67
2022/04/27 03:42:23;;;;;;;8.77;8.37;;;;;;;5.62;96.82;101741.88;5116404;28;20189;-67
2022/04/27 03:44:57;;;;;;;12.60;11.33;;;;;;;5.50;97.22;101740.19;5097412;28;20248;-68
2022/04/27 03:47:25;;;;;;;10.83;9.90;;;;;;;5.41;97.15;101740.25;5098154;28;20208;-67
2022/04/27 03:49:55;;;;;;;11.67;10.67;;;;;;;5.30;97.84;101739.44;5096495;28;20287;-68
2022/04/27 03:52:21;;;;;;;10.33;9.60;;;;;;;5.24;98.51;101737.72;5116720;28;20183;-67
2022/04/27 03:54:49;;;;;;;12.57;11.30;;;;;;;5.29;98.38;101748.06;5097858;28;20221;-67
2022/04/27 03:57:16;;;;;;;10.47;9.83;;;;;;;5.31;98.75;101749.81;5097725;28;20216;-67
2022/04/27 03:59:42;;;;;;;9.70;9.00;;;;;;;5.36;98.59;101755.84;5095728;28;20195;-68
2022/04/27 04:02:10;;;;;;;10.23;9.37;;;;;;;5.45;98.56;101753.22;5097727;28;20698;-68
2022/04/27 04:04:36;;;;;;;10.77;10.17;;;;;;;5.40;98.48;101757.56;5116221;28;20237;-67
2022/04/27 04:07:03;;;;;;;11.33;10.67;;;;;;;5.39;98.44;101762.75;5097518;28;20220;-67
2022/04/27 04:09:39;;;;;;;10.30;9.60;;;;;;;5.35;98.75;101758.44;5097048;28;20215;-68
2022/04/27 04:12:07;;;;;;;9.57;9.17;;;;;;;5.36;98.77;101762.75;5115774;28;20226;-68
2022/04/27 04:14:59;;;;;;;12.03;10.83;;;;;;;5.40;99.19;101764.47;5115603;28;20218;-68
2022/04/27 04:17:46;;;;;;;10.70;9.13;;;;;;;5.42;98.56;101780.91;5096052;28;20577;-69
2022/04/27 04:20:33;;;;;;;11.10;10.00;;;;;;;5.33;98.67;101775.75;5097422;28;20192;-69
2022/04/27 04:23:13;;;;;;;11.70;10.97;;;;;;;5.26;98.74;101785.28;5097332;28;20682;-68
2022/04/27 04:28:29;;;;;;;11.53;10.63;;;;;;;5.25;99.09;101781.84;5092257;28;20205;-69
2022/04/27 04:31:03;;;;;;;10.90;10.20;;;;;;;5.28;99.17;101793.94;5076818;28;20662;-68
2022/04/27 04:33:48;;;;;;;13.13;10.47;;;;;;;5.25;99.34;101781.84;5093649;28;20186;-68
2022/04/27 04:36:15;;;;;;;12.20;10.70;;;;;;;5.24;99.34;101792.22;5091711;28;20191;-69
2022/04/27 04:38:42;;;;;;;11.03;10.20;;;;;;;5.24;99.39;101793.09;5096988;28;20194;-68
2022/04/27 04:41:15;;;;;;;23.40;11.47;;;;;;;5.29;99.15;101790.50;5096460;28;20652;-68
2022/04/27 04:43:51;;;;;;;11.30;10.53;;;;;;;5.26;99.65;101795.69;5097202;28;20654;-68
2022/04/27 04:46:20;;;;;;;12.97;11.63;;;;;;;5.28;99.81;101800.84;5095409;28;20220;-68
2022/04/27 04:49:06;;;;;;;11.93;11.03;;;;;;;5.32;99.75;101806.06;5115690;28;20296;-68
2022/04/27 04:51:34;;;;;;;12.07;11.10;;;;;;;5.38;99.83;101807.78;5115629;28;20219;-68
2022/04/27 04:54:20;;;;;;;11.70;10.70;;;;;;;5.46;99.67;101803.44;5115845;28;20212;-68
2022/04/27 04:57:04;;;;;;;11.57;10.67;;;;;;;5.41;99.74;101810.34;5096291;28;20225;-68
2022/04/27 04:59:53;;;;;;;12.90;11.83;;;;;;;5.44;99.40;101811.22;5114557;28;20682;-67
2022/04/27 05:02:35;;;;;;;18.87;12.33;;;;;;;5.43;99.32;101808.59;5096544;28;20217;-68
2022/04/27 05:05:38;;;;;;;15.97;11.47;;;;;;;5.47;99.40;101816.41;5069583;28;20202;-67
2022/04/27 05:08:20;;;;;;;12.53;11.47;;;;;;;5.43;99.33;101825.09;5096371;28;20231;-68
2022/04/27 05:11:07;;;;;;;13.47;12.13;;;;;;;5.50;99.78;101828.50;5103440;28;20216;-68
2022/04/27 05:13:59;;;;;;;12.37;11.23;;;;;;;5.53;100.00;101828.50;5095669;28;20232;-68
2022/04/27 05:16:42;;;;;;;13.00;12.03;;;;;;;5.53;99.69;101838.91;5097001;28;20230;-68
2022/04/27 05:19:37;;;;;;;12.70;11.57;;;;;;;5.61;99.47;101844.94;5095505;28;20202;-67
2022/04/27 05:22:38;;;;;;;13.53;11.97;;;;;;;5.64;99.33;101844.91;5096137;28;20242;-67
2022/04/27 05:25:23;;;;;;;11.03;10.17;;;;;;;5.62;99.44;101844.06;5113840;28;20253;-68
2022/04/27 05:28:10;;;;;;;11.43;10.73;;;;;;;5.63;99.93;101852.72;5113691;28;20238;-68
2022/04/27 05:33:59;;;;;;;12.20;11.10;;;;;;;5.86;100.00;101860.44;5110192;28;20283;-68
2022/04/27 05:36:34;;;;;;;13.07;11.73;;;;;;;5.95;100.00;101858.72;5087243;28;20250;-69
2022/04/27 05:39:21;;;;;;;14.80;12.10;;;;;;;5.98;100.00;101855.25;5093398;28;20610;-69
2022/04/27 05:42:06;;;;;;;12.87;11.87;;;;;;;6.18;99.46;101865.56;5092430;28;20193;-69
2022/04/27 05:44:59;;;;;;;14.07;11.23;;;;;;;6.26;99.71;101867.25;5090674;28;20262;-69
2022/04/27 05:47:38;;;;;;;14.13;12.73;;;;;;;6.40;99.36;101863.72;5094803;28;20219;-69
2022/04/27 05:50:11;;;;;;;15.70;14.10;;;;;;;6.44;98.95;101865.44;5112178;28;20224;-68
2022/04/27 05:52:58;;;;;;;14.83;12.90;;;;;;;6.48;99.16;101868.00;5095127;28;20188;-68
2022/04/27 05:56:00;;;;;;;12.53;11.57;;;;;;;6.68;98.85;101867.88;5101321;28;20200;-69
2022/04/27 05:59:05;;;;;;;13.33;12.23;;;;;;;6.78;98.31;101874.72;5086331;28;20211;-69
2022/04/27 06:01:45;;;;;;;13.80;12.47;;;;;;;6.88;98.43;101873.81;5113184;28;20217;-69
2022/04/27 06:04:17;;;;;;;14.43;13.23;;;;;;;7.06;97.70;101869.31;5095584;28;20192;-69
2022/04/27 06:06:45;;;;;;;13.90;11.83;;;;;;;7.14;97.51;101876.22;5096216;28;20213;-69
2022/04/27 06:09:15;;;;;;;13.97;12.60;;;;;;;7.25;97.76;101888.28;5095411;28;20731;-69
2022/04/27 06:11:54;;;;;;;14.23;12.93;;;;;;;7.31;98.24;101883.00;5095465;28;20226;-69
2022/04/27 06:14:39;;;;;;;13.20;12.10;;;;;;;7.48;95.77;101885.44;5113248;28;20551;-69
2022/04/27 06:17:10;;;;;;;12.90;11.83;;;;;;;7.55;94.96;101884.50;5095591;28;20631;-69
2022/04/27 06:19:37;;;;;;;13.67;12.40;;;;;;;7.62;95.46;101894.00;5094691;28;20185;-69
2022/04/27 06:22:08;;;;;;;14.00;12.63;;;;;;;7.77;94.51;101883.41;5096695;28;20602;-69
2022/04/27 06:24:36;;;;;;;13.30;12.20;;;;;;;7.90;93.74;101885.00;5098749;28;20198;-69
2022/04/27 06:27:33;;;;;;;13.87;12.70;;;;;;;7.96;93.55;101887.53;5101601;28;20712;-69
2022/04/27 06:30:00;;;;;;;13.93;12.70;;;;;;;8.07;91.12;101895.22;5095177;28;20844;-68
2022/04/27 06:32:32;;;;;;;10.77;10.00;;;;;;;8.16;90.11;101894.28;5079628;28;20189;-69
2022/04/27 06:35:04;;;;;;;12.40;11.50;;;;;;;8.22;90.84;101896.81;5097563;28;20187;-69
2022/04/27 06:37:33;;;;;;;12.00;11.20;;;;;;;8.29;90.26;101903.69;5096498;28;20306;-69
2022/04/27 06:39:59;;;;;;;11.63;10.80;;;;;;;8.38;90.59;101900.97;5099029;28;20190;-69
2022/04/27 06:42:26;;;;;;;11.97;10.93;;;;;;;8.52;90.21;101896.44;5099572;28;20189;-69
2022/04/27 06:45:12;;;;;;;12.33;11.23;;;;;;;8.68;87.33;101896.22;5118121;28;20224;-70
2022/04/27 06:47:58;;;;;;;12.20;11.10;;;;;;;8.91;86.33;101904.56;5075537;28;20711;-70
2022/04/27 06:50:44;;;;;;;11.67;10.60;;;;;;;9.14;85.51;101901.56;5110267;28;20195;-69
2022/04/27 06:53:29;;;;;;;11.10;10.37;;;;;;;9.16;85.72;101907.66;5112200;28;20545;-69
2022/04/27 06:56:20;;;;;;;11.73;10.80;;;;;;;9.37;83.64;101907.31;5113077;28;20197;-68
2022/04/27 06:59:10;;;;;;;9.97;9.60;;;;;;;9.52;83.68;101911.41;5108897;28;20311;-70
2022/04/27 07:01:38;;;;;;;16.80;10.80;;;;;;;9.59;82.92;101905.16;5096023;28;20208;-69
2022/04/27 07:04:07;;;;;;;11.37;9.27;;;;;;;9.70;82.00;101912.81;5098124;28;21462;-70
2022/04/27 07:06:35;;;;;;;10.77;9.87;;;;;;;9.78;82.67;101910.91;5096168;28;20223;-70
2022/04/27 07:09:01;;;;;;;11.83;9.00;;;;;;;10.00;82.44;101905.25;5117085;28;20255;-70
2022/04/27 07:11:28;;;;;;;9.70;9.27;;;;;;;10.09;80.48;101905.97;5116007;28;20197;-69
2022/04/27 07:13:55;;;;;;;8.83;8.53;;;;;;;10.20;79.47;101919.66;5116343;28;20245;-70
2022/04/27 07:16:21;;;;;;;7.80;7.50;;;;;;;10.35;78.40;101915.03;5116051;28;20196;-70
2022/04/27 07:18:50;;;;;;;8.67;8.37;;;;;;;10.45;78.47;101919.22;5085181;28;20189;-70
2022/04/27 07:21:16;;;;;;;7.93;7.60;;;;;;;10.49;79.15;101920.84;5113703;28;20185;-70
2022/04/27 07:23:42;;;;;;;7.70;7.43;;;;;;;10.65;77.16;101921.41;5116878;28;20177;-70
2022/04/27 07:26:09;;;;;;;9.87;7.60;;;;;;;10.70;75.72;101922.13;5117301;28;20176;-70
2022/04/27 07:28:36;;;;;;;8.37;7.83;;;;;;;10.74;76.87;101924.66;5112266;28;20250;-70
2022/04/27 07:31:03;;;;;;;7.60;7.10;;;;;;;10.80;76.08;101926.28;5115769;28;20234;-70
2022/04/27 07:33:29;;;;;;;6.87;6.63;;;;;;;10.85;74.09;101932.25;5116522;28;20551;-70
2022/04/27 07:35:56;;;;;;;7.27;6.80;;;;;;;11.04;72.93;101935.31;5114836;28;20242;-70
2022/04/27 07:38:22;;;;;;;6.80;6.70;;;;;;;11.05;74.03;101930.94;5115442;28;20706;-70
2022/04/27 07:40:49;;;;;;;6.67;6.40;;;;;;;11.10;72.96;101935.19;5113738;28;20217;-70
2022/04/27 07:43:18;;;;;;;7.30;6.90;;;;;;;11.09;71.54;101935.22;5115532;28;20223;-70
2022/04/27 07:45:44;;;;;;;7.30;6.63;;;;;;;11.10;71.71;101937.81;5114539;28;20230;-71
2022/04/27 07:48:11;;;;;;;6.20;6.00;;;;;;;11.12;70.94;101941.25;5114527;28;20240;-70
2022/04/27 07:50:38;;;;;;;6.77;6.10;;;;;;;11.20;71.75;101941.91;5115612;28;20228;-70
2022/04/27 07:53:04;;;;;;;10.70;6.17;;;;;;;11.29;70.46;101946.09;5113625;28;20230;-72
2022/04/27 07:55:30;;;;;;;6.63;6.30;;;;;;;11.36;69.29;101949.41;5116108;28;20185;-70
2022/04/27 07:57:57;;;;;;;6.97;6.60;;;;;;;11.28;69.65;101947.84;5114041;28;20236;-70
2022/04/27 08:00:24;;;;;;;6.00;5.80;;;;;;;11.19;68.47;101949.81;5115861;28;20177;-70
2022/04/27 08:02:50;;;;;;;6.73;6.57;;;;;;;11.28;69.82;101950.44;5112429;28;20610;-70
2022/04/27 08:05:17;;;;;;;7.07;5.93;;;;;;;11.41;68.25;101947.53;5109524;28;20184;-70
2022/04/27 08:07:45;;;;;;;7.10;6.47;;;;;;;11.38;69.05;101953.72;5114051;28;20581;-70
2022/04/27 08:10:14;;;;;;;5.70;5.60;;;;;;;11.58;68.89;101951.47;5114779;28;20489;-70
2022/04/27 08:12:44;;;;;;;6.47;6.07;;;;;;;11.65;68.50;101951.31;5115674;28;20698;-69
2022/04/27 08:15:10;;;;;;;6.13;5.63;;;;;;;11.74;69.63;101957.19;5114357;28;20242;-69
2022/04/27 08:17:50;;;;;;;5.10;5.00;;;;;;;11.81;70.69;101957.91;5115783;28;20248;-69
2022/04/27 08:23:06;;;;;;;7.97;6.27;;;;;;;12.08;69.18;101954.56;5114715;28;20215;-69
2022/04/27 08:25:32;;;;;;;8.80;5.60;;;;;;;12.11;67.51;101964.09;5114725;28;20643;-70
2022/04/27 08:27:59;;;;;;;6.13;5.93;;;;;;;12.10;69.33;101957.13;5112386;28;20252;-69
2022/04/27 08:30:25;;;;;;;6.17;5.93;;;;;;;12.04;66.54;101962.53;5115690;28;20552;-69
2022/04/27 08:32:51;;;;;;;5.67;5.57;;;;;;;12.03;66.64;101956.44;5113634;28;20264;-69
2022/04/27 08:35:18;;;;;;;6.90;6.70;;;;;;;12.22;66.57;101955.94;5110733;28;20608;-69
2022/04/27 08:37:44;;;;;;;6.50;6.13;;;;;;;12.09;64.25;101958.88;5105286;28;20220;-69
2022/04/27 08:40:11;;;;;;;6.20;5.97;;;;;;;12.05;67.20;101962.50;5115617;28;20262;-70
2022/04/27 08:42:37;;;;;;;6.30;5.93;;;;;;;12.12;64.71;101960.56;5106649;28;20663;-69
2022/04/27 08:45:04;;;;;;;6.23;5.83;;;;;;;12.23;66.39;101966.38;5113431;28;20227;-70
2022/04/27 08:47:32;;;;;;;6.13;5.97;;;;;;;12.35;66.38;101971.28;5113412;28;20213;-69
2022/04/27 08:50:09;;;;;;;5.90;5.70;;;;;;;12.48;64.50;101969.16;5114268;28;20232;-70
2022/04/27 08:52:35;;;;;;;6.43;6.00;;;;;;;12.44;63.79;101966.69;5112485;28;20593;-69
2022/04/27 08:55:02;;;;;;;7.03;6.57;;;;;;;12.48;65.14;101966.53;5114329;28;20759;-70
2022/04/27 08:57:30;;;;;;;6.43;6.03;;;;;;;12.62;62.12;101968.75;5113889;28;20240;-69
2022/04/27 08:59:56;;;;;;;6.30;6.07;;;;;;;12.62;62.64;101971.38;5112975;28;20185;-69
2022/04/27 09:02:27;;;;;;;6.50;6.30;;;;;;;12.59;63.74;101967.09;5112840;28;20704;-70
2022/04/27 09:05:14;;;;;;;6.53;6.33;;;;;;;12.64;63.10;101964.31;5095830;28;20284;-70
2022/04/27 09:07:40;;;;;;;7.00;6.37;;;;;;;12.55;62.27;101972.47;5113224;28;20232;-70
2022/04/27 09:10:09;;;;;;;6.07;5.70;;;;;;;12.63;62.15;101973.09;5114896;28;20625;-70
2022/04/27 09:12:44;;;;;;;5.23;5.13;;;;;;;12.61;61.76;101970.53;5113533;28;20221;-70
2022/04/27 09:15:12;;;;;;;5.17;4.97;;;;;;;12.79;60.33;101974.38;5105554;28;20242;-70
2022/04/27 09:23:22;;;;;;;6.87;6.27;;;;;;;13.01;62.21;101978.97;5094357;28;20578;-70
2022/04/27 09:26:00;;;;;;;6.80;6.30;;;;;;;12.82;61.72;101976.91;5094006;28;20193;-70
2022/04/27 09:28:30;;;;;;;6.63;6.53;;;;;;;12.85;63.24;101976.81;5093911;28;20174;-70
2022/04/27 09:30:57;;;;;;;8.77;8.10;;;;;;;12.77;62.48;101981.44;5094133;28;20246;-70
2022/04/27 09:33:37;;;;;;;7.40;6.80;;;;;;;12.86;62.94;101983.81;5094581;28;20217;-70
2022/04/27 09:36:23;;;;;;;7.50;7.20;;;;;;;12.88;62.66;101983.75;5093754;28;20213;-70
2022/04/27 09:38:50;;;;;;;7.43;6.87;;;;;;;12.79;61.99;101979.63;5093877;28;20201;-69
2022/04/27 09:41:42;;;;;;;7.93;7.60;;;;;;;12.87;62.70;101977.63;5107196;28;20685;-69
2022/04/27 09:44:25;;;;;;;7.50;7.23;;;;;;;12.82;62.58;101976.06;5113337;28;20181;-70
2022/04/27 09:46:51;;;;;;;8.60;7.90;;;;;;;12.88;63.21;101974.09;5113034;28;20212;-70
2022/04/27 09:49:18;;;;;;;8.37;7.53;;;;;;;12.93;66.80;101974.81;5110911;28;20273;-69
2022/04/27 09:52:01;;;;;;;8.20;7.80;;;;;;;12.94;65.00;101979.16;5101662;28;20186;-70
2022/04/27 09:54:29;;;;;;;8.47;8.00;;;;;;;12.79;64.40;101974.38;5106308;28;20216;-69
2022/04/27 09:57:00;;;;;;;9.33;8.37;;;;;;;12.62;67.14;101969.63;5112601;28;20205;-69
2022/04/27 09:59:32;;;;;;;8.97;8.47;;;;;;;12.69;64.38;101980.81;5099914;28;20219;-70
2022/04/27 10:02:05;;;;;;;10.97;8.47;;;;;;;12.63;65.67;101973.09;5114167;28;20169;-71
2022/04/27 10:04:32;;;;;;;9.57;9.00;;;;;;;12.46;68.56;101978.84;5112794;28;20193;-69
2022/04/27 10:07:01;;;;;;;8.97;8.47;;;;;;;12.61;66.30;101975.78;5112891;28;20564;-70
2022/04/27 10:09:29;;;;;;;8.67;8.17;;;;;;;12.76;62.85;101974.47;5113589;28;20200;-70
2022/04/27 10:12:11;;;;;;;12.30;8.53;;;;;;;12.88;62.36;101974.09;5111014;28;20192;-69
2022/04/27 10:14:37;;;;;;;9.47;8.90;;;;;;;13.03;59.02;101971.91;5111997;28;20228;-69
2022/04/27 10:17:04;;;;;;;9.03;8.40;;;;;;;13.16;59.27;101981.13;5111414;28;20216;-69
2022/04/27 10:19:31;;;;;;;10.13;9.33;;;;;;;13.27;61.23;101979.03;5111975;28;20189;-69
2022/04/27 10:21:59;;;;;;;8.53;8.27;;;;;;;13.44;62.42;101970.59;5113589;28;20212;-70
2022/04/27 10:24:34;;;;;;;8.57;8.03;;;;;;;13.42;60.61;101970.63;5111708;28;20228;-70
2022/04/27 10:27:13;;;;;;;11.60;9.60;;;;;;;13.54;59.10;101963.25;5111873;28;20209;-70
2022/04/27 10:29:40;;;;;;;9.80;7.33;;;;;;;13.61;60.81;101962.13;5110818;28;20236;-70
2022/04/27 10:32:07;;;;;;;9.07;8.57;;;;;;;13.67;59.22;101964.56;5113163;28;20276;-70
2022/04/27 10:34:33;;;;;;;8.40;8.13;;;;;;;13.64;59.46;101970.78;5111745;28;20197;-70
2022/04/27 10:37:03;;;;;;;10.03;9.40;;;;;;;13.84;62.29;101961.34;5113299;28;20201;-70
2022/04/27 10:39:31;;;;;;;9.23;8.60;;;;;;;13.78;61.08;101962.41;5110083;28;20242;-69
2022/04/27 10:42:04;;;;;;;9.60;9.10;;;;;;;13.76;61.28;101965.09;5110880;28;20286;-70
2022/04/27 10:44:53;;;;;;;10.53;10.00;;;;;;;13.53;62.34;101966.81;5112341;28;20185;-70
2022/04/27 10:47:22;;;;;;;9.33;9.00;;;;;;;13.54;62.26;101965.88;5096468;28;20201;-69
2022/04/27 10:50:13;;;;;;;10.53;9.93;;;;;;;13.40;59.35;101958.44;5110729;28;20228;-69
2022/04/27 10:52:44;;;;;;;10.50;8.80;;;;;;;13.52;60.75;101957.19;5111324;28;20200;-69
2022/04/27 10:55:35;;;;;;;9.60;9.23;;;;;;;13.35;58.53;101966.47;5109522;28;20216;-70
2022/04/27 10:58:24;;;;;;;8.33;8.07;;;;;;;13.52;60.88;101965.09;5113171;28;20262;-70
2022/04/27 11:01:02;;;;;;;9.53;8.83;;;;;;;13.57;62.66;101965.78;5113464;28;20197;-70
2022/04/27 11:03:36;;;;;;;9.70;9.07;;;;;;;13.64;61.06;101964.66;5113511;28;20177;-70
2022/04/27 11:06:06;;;;;;;8.47;7.90;;;;;;;13.83;62.08;101964.88;5113796;28;20224;-70
2022/04/27 11:08:36;;;;;;;8.97;8.43;;;;;;;13.92;63.31;101960.16;5114830;28;20209;-70
2022/04/27 11:11:06;;;;;;;9.13;8.50;;;;;;;13.98;64.24;101966.97;5117439;28;20616;-70
2022/04/27 11:13:35;;;;;;;9.23;8.93;;;;;;;14.09;61.03;101963.97;5117700;28;20170;-70
2022/04/27 11:16:10;;;;;;;9.10;8.70;;;;;;;14.09;61.96;101962.22;5116850;28;20596;-71
2022/04/27 11:18:50;;;;;;;9.03;8.63;;;;;;;14.16;59.41;101963.72;5098419;28;20184;-70
2022/04/27 11:21:18;;;;;;;9.47;8.90;;;;;;;14.01;62.02;101953.72;5116722;28;20184;-70
2022/04/27 11:23:45;;;;;;;8.80;8.40;;;;;;;14.13;61.20;101965.56;5116980;28;20213;-70
2022/04/27 11:26:13;;;;;;;8.13;7.93;;;;;;;13.99;61.61;101961.66;5117029;28;20197;-70
2022/04/27 11:28:44;;;;;;;8.57;8.17;;;;;;;13.92;58.80;101959.28;5116920;28;20223;-70
2022/04/27 11:31:14;;;;;;;9.13;8.57;;;;;;;13.98;62.98;101961.72;5117336;28;20240;-70
2022/04/27 11:33:41;;;;;;;8.37;8.07;;;;;;;14.12;64.75;101955.97;5116859;28;20181;-70
2022/04/27 11:36:25;;;;;;;9.03;8.63;;;;;;;14.15;70.32;101942.69;5116330;28;20189;-70
2022/04/27 11:38:52;;;;;;;8.87;8.47;;;;;;;14.17;61.41;101954.03;5116628;28;20220;-70
2022/04/27 11:41:25;;;;;;;9.83;9.03;;;;;;;14.26;63.46;101951.91;5116559;28;20553;-70
2022/04/27 11:43:54;;;;;;;8.53;8.17;;;;;;;14.26;61.59;101948.41;5114466;28;20209;-70
2022/04/27 11:46:20;;;;;;;9.20;8.50;;;;;;;14.23;62.43;101959.06;5112876;28;20221;-70
2022/04/27 11:48:48;;;;;;;10.53;8.87;;;;;;;14.28;59.91;101960.59;5114136;28;20270;-70
2022/04/27 11:51:15;;;;;;;8.53;8.07;;;;;;;14.35;59.02;101957.75;5115418;28;20221;-70
2022/04/27 11:53:49;;;;;;;8.97;8.47;;;;;;;14.42;58.56;101954.81;5116442;28;20655;-71
2022/04/27 11:56:18;;;;;;;9.57;8.87;;;;;;;14.55;60.48;101949.97;5115916;28;20604;-70
2022/04/27 11:58:46;;;;;;;11.17;10.20;;;;;;;14.47;57.94;101955.56;5114925;28;20197;-71
2022/04/27 12:01:23;;;;;;;9.57;9.23;;;;;;;14.46;61.96;101953.84;5116280;28;20268;-70
2022/04/27 12:03:50;;;;;;;11.13;10.47;;;;;;;14.40;62.00;101950.53;5117057;28;20582;-71
2022/04/27 12:06:24;;;;;;;9.87;9.37;;;;;;;14.44;61.03;101954.78;5116159;28;20186;-70